This is the latest recevied weather packets stored in our database for station/object K4YY. If no packets are shown the sender has not sent any weather packets the latest 10 day(s).
| Time | Temp. | Humidity | Pressure | Rain* | Wind** | Luminosity | Snow |
|---|---|---|---|---|---|---|---|
| 1777852518 | 21.67° C | 57% | 1016.4 hPa | 0 mm | - | 18 W/m² | - |
| 1777850718 | 22.22° C | 49% | 1016.5 hPa | 0 mm | - | 100 W/m² | - |
| 1777847138 | 22.22° C | 51% | 1016.5 hPa | 0 mm | - | 210 W/m² | - |
| 1777841718 | 22.78° C | 50% | 1016.4 hPa | 0 mm | - | 675 W/m² | - |
| 1777833359 | 22.78° C | 51% | 1017.8 hPa | 0 mm | - | 310 W/m² | - |
| 1777832718 | 22.78° C | 52% | 1018.1 hPa | 0 mm | - | 1080 W/m² | - |
| 1777828518 | 21.11° C | 52% | 1018.4 hPa | 0 mm | - | 1019 W/m² | - |
| 1777823718 | 20° C | 63% | 1018.7 hPa | 0 mm | - | 885 W/m² | - |
| 1777821919 | 19.44° C | 66% | 1018.8 hPa | 0 mm | - | 361 W/m² | - |
| 1777818920 | 17.78° C | 76% | 1018.8 hPa | 0 mm | - | 794 W/m² | - |
| 1777818319 | 17.78° C | 78% | 1018.8 hPa | 0 mm | - | 798 W/m² | - |
| 1777814719 | 16.11° C | 84% | 1018.3 hPa | 0 mm | - | 57 W/m² | - |
| 1777812319 | 14.44° C | 89% | 1017.9 hPa | 0 mm | - | 83 W/m² | - |
| 1777810519 | 13.89° C | 91% | 1017.8 hPa | 0 mm | - | 73 W/m² | - |
| 1777809919 | 13.89° C | 91% | 1017.8 hPa | 0 mm | - | 84 W/m² | - |
| 1777808719 | 13.33° C | 91% | 1017.7 hPa | 0 mm | - | 61 W/m² | - |
| 1777806939 | 13.89° C | 91% | 1017.3 hPa | 0 mm | - | 23 W/m² | - |
| 1777805719 | 13.33° C | 91% | 1016.9 hPa | 0 mm | - | 8 W/m² | - |
| 1777800919 | 13.89° C | 91% | 1016.3 hPa | 0 mm | - | 0 W/m² | - |
| 1777799119 | 13.89° C | 91% | 1015.7 hPa | 0 mm | - | 0 W/m² | - |
| 1777798519 | 13.89° C | 91% | 1015.7 hPa | 0 mm | - | 0 W/m² | - |
| 1777796719 | 13.89° C | 91% | 1015.7 hPa | 0 mm | - | 0 W/m² | - |
| 1777795559 | 14.44° C | 91% | 1015.6 hPa | 0 mm | - | 0 W/m² | - |
| 1777787119 | 15.56° C | 90% | 1014.8 hPa | 0 mm | - | 0 W/m² | - |
| 1777781159 | 16.11° C | 89% | 1014.1 hPa | 0 mm | - | 0 W/m² | - |
* Rain latest hour (hover to see other rain measurements)
** Current wind speed in m/s (hover to see current wind gust speed)